Time;durP1;ratioP1;P1;durP2;ratioP2;P2;SDS_P1;SDS_P2;PMS_P1;PMS_P2;Temp;Humidity;BMP_temperature;BMP_pressure;BME280_temperature;BME280_humidity;BME280_pressure;Samples;Min_cycle;Max_cycle;Signal;HPM_P1;HPM_P2
2023/10/11 00:03:32;;;;;;;12.07;7.60;;;15.00;99.90;;;;;;5111052;28;20203;-85
2023/10/11 00:05:59;;;;;;;6.68;5.35;;;14.50;99.90;;;;;;5088431;28;20187;-84
2023/10/11 00:08:29;;;;;;;9.82;5.35;;;14.60;99.90;;;;;;5089068;28;20188;-85
2023/10/11 00:10:58;;;;;;;7.70;5.00;;;14.80;99.90;;;;;;5093663;28;20175;-85
2023/10/11 00:13:35;;;;;;;7.32;5.45;;;14.80;99.90;;;;;;5094128;28;20207;-85
2023/10/11 00:16:07;;;;;;;6.65;5.05;;;14.90;99.90;;;;;;5090023;28;20651;-85
2023/10/11 00:18:37;;;;;;;8.77;5.22;;;14.50;99.90;;;;;;5094718;28;20274;-85
2023/10/11 00:21:10;;;;;;;6.60;5.10;;;14.50;99.90;;;;;;5090738;28;20200;-85
2023/10/11 00:23:38;;;;;;;8.60;4.68;;;14.60;99.90;;;;;;5093295;28;20211;-85
2023/10/11 00:26:06;;;;;;;7.10;5.90;;;14.30;99.90;;;;;;5091205;28;20228;-85
2023/10/11 00:28:32;;;;;;;6.68;5.53;;;14.50;99.90;;;;;;5093424;28;20176;-84
2023/10/11 00:31:01;;;;;;;8.17;5.37;;;14.50;99.90;;;;;;5093178;28;20205;-84
2023/10/11 00:33:27;;;;;;;10.85;5.70;;;15.00;99.90;;;;;;5092801;28;20556;-85
2023/10/11 00:35:55;;;;;;;6.20;5.00;;;14.50;99.90;;;;;;5097830;28;20211;-84
2023/10/11 00:38:27;;;;;;;7.90;5.32;;;14.20;99.90;;;;;;5115579;28;20708;-85
2023/10/11 00:41:01;;;;;;;9.40;5.13;;;14.80;99.90;;;;;;5105240;28;20184;-85
2023/10/11 00:43:35;;;;;;;8.25;5.30;;;14.30;99.90;;;;;;5087792;28;20363;-85
2023/10/11 00:46:09;;;;;;;8.68;5.22;;;14.40;99.90;;;;;;5090104;28;20184;-84
2023/10/11 00:48:52;;;;;;;8.93;5.07;;;14.00;99.90;;;;;;5091276;28;20268;-84
2023/10/11 00:51:19;;;;;;;12.50;5.70;;;14.20;99.90;;;;;;5093077;28;20189;-84
2023/10/11 00:53:47;;;;;;;8.48;5.18;;;14.40;99.90;;;;;;5090942;28;20210;-85
2023/10/11 00:56:14;;;;;;;8.00;5.13;;;14.30;99.90;;;;;;5090016;28;20278;-84
2023/10/11 00:58:41;;;;;;;8.70;5.45;;;13.90;99.90;;;;;;5089908;28;20184;-84
2023/10/11 01:01:08;;;;;;;6.20;4.93;;;14.70;99.90;;;;;;5088426;28;20183;-84
2023/10/11 01:03:35;;;;;;;7.35;5.22;;;14.20;99.90;;;;;;5088393;28;20393;-84
2023/10/11 01:06:00;;;;;;;7.03;5.20;;;13.80;99.90;;;;;;5092481;28;20266;-84
2023/10/11 01:08:39;;;;;;;8.50;5.50;;;14.10;99.90;;;;;;5090815;28;20275;-84
2023/10/11 01:11:13;;;;;;;8.52;4.72;;;13.70;99.90;;;;;;5106356;28;20652;-84
2023/10/11 01:13:40;;;;;;;7.55;5.30;;;14.00;99.90;;;;;;5087442;28;20699;-84
2023/10/11 01:16:07;;;;;;;7.50;4.95;;;14.20;99.90;;;;;;5090211;28;20194;-84
2023/10/11 01:18:33;;;;;;;8.25;5.35;;;14.30;99.90;;;;;;5086192;28;20196;-84
2023/10/11 01:21:01;;;;;;;8.68;4.88;;;14.00;99.90;;;;;;5089830;28;20199;-84
2023/10/11 01:23:26;;;;;;;7.65;4.40;;;14.10;99.90;;;;;;5088299;28;20251;-84
2023/10/11 01:25:55;;;;;;;13.00;5.57;;;14.00;99.90;;;;;;5091233;28;20212;-84
2023/10/11 01:28:21;;;;;;;8.82;5.80;;;14.10;99.90;;;;;;5101691;28;20238;-84
2023/10/11 01:30:47;;;;;;;8.02;5.20;;;13.90;99.90;;;;;;5091430;28;20182;-84
2023/10/11 01:33:16;;;;;;;11.30;6.30;;;14.30;99.90;;;;;;5089567;28;20208;-84
2023/10/11 01:35:42;;;;;;;7.78;4.90;;;13.50;99.90;;;;;;5089113;28;20452;-84
2023/10/11 01:38:08;;;;;;;8.30;5.50;;;13.40;99.90;;;;;;5090823;28;20241;-84
2023/10/11 01:40:33;;;;;;;10.23;6.03;;;13.60;99.90;;;;;;5090315;28;20461;-84
2023/10/11 01:43:00;;;;;;;8.13;4.83;;;13.60;99.90;;;;;;5089238;28;20222;-84
2023/10/11 01:45:26;;;;;;;7.88;5.13;;;13.40;99.90;;;;;;5092859;28;20228;-84
2023/10/11 01:47:56;;;;;;;6.87;5.67;;;13.40;99.90;;;;;;5088895;28;20180;-85
2023/10/11 01:50:24;;;;;;;8.85;5.30;;;13.40;99.90;;;;;;5110798;28;20175;-84
2023/10/11 01:52:50;;;;;;;6.72;5.20;;;13.50;99.90;;;;;;5090985;28;20210;-84
2023/10/11 01:55:17;;;;;;;8.63;5.10;;;13.10;99.90;;;;;;5088739;28;20176;-85
2023/10/11 01:57:46;;;;;;;8.20;5.40;;;13.40;99.90;;;;;;5087974;28;20180;-84
2023/10/11 02:00:15;;;;;;;18.85;13.70;;;13.80;99.90;;;;;;5091528;28;20275;-85
2023/10/11 02:02:55;;;;;;;8.80;5.10;;;14.00;99.90;;;;;;5093242;28;20222;-85
2023/10/11 02:05:24;;;;;;;9.52;4.90;;;13.50;99.90;;;;;;5089487;28;20179;-85
2023/10/11 02:07:50;;;;;;;8.73;5.25;;;14.00;99.90;;;;;;5089077;28;20699;-85
2023/10/11 02:10:25;;;;;;;7.88;5.07;;;13.90;99.90;;;;;;5082966;28;20186;-85
2023/10/11 02:12:52;;;;;;;6.28;4.50;;;13.70;99.90;;;;;;5088923;28;20332;-84
2023/10/11 02:15:30;;;;;;;8.35;5.18;;;14.10;99.90;;;;;;5088205;28;20198;-84
2023/10/11 02:17:58;;;;;;;6.80;5.45;;;14.00;99.90;;;;;;5088835;28;20187;-84
2023/10/11 02:20:24;;;;;;;8.13;5.10;;;14.20;99.90;;;;;;5107889;28;20198;-84
2023/10/11 02:22:55;;;;;;;7.10;5.20;;;14.10;99.90;;;;;;5086961;28;20211;-85
2023/10/11 02:25:27;;;;;;;8.43;5.43;;;13.80;99.90;;;;;;5088802;28;20437;-85
2023/10/11 02:27:55;;;;;;;11.85;5.28;;;14.10;99.90;;;;;;5083850;28;20180;-85
2023/10/11 02:30:24;;;;;;;6.60;4.80;;;13.80;99.90;;;;;;5089819;28;20750;-85
2023/10/11 02:32:58;;;;;;;8.38;5.43;;;14.20;99.90;;;;;;5089591;28;20218;-85
2023/10/11 02:35:27;;;;;;;10.68;5.40;;;14.40;99.90;;;;;;5088760;28;20190;-85
2023/10/11 02:37:55;;;;;;;6.28;5.30;;;14.40;99.90;;;;;;5089549;28;20485;-85
2023/10/11 02:40:24;;;;;;;6.57;5.40;;;14.80;99.90;;;;;;5086105;28;20190;-85
2023/10/11 02:42:55;;;;;;;11.38;5.25;;;14.40;99.90;;;;;;5089388;28;20286;-84
2023/10/11 02:45:25;;;;;;;8.52;5.75;;;14.50;99.90;;;;;;5086212;28;20196;-85
2023/10/11 02:47:59;;;;;;;9.23;5.45;;;14.10;99.90;;;;;;5087142;28;20179;-85
2023/10/11 02:50:28;;;;;;;10.32;5.35;;;14.60;99.90;;;;;;5085714;28;20259;-85
2023/10/11 02:53:05;;;;;;;8.80;5.28;;;14.60;99.90;;;;;;5082486;28;20199;-85
2023/10/11 02:55:30;;;;;;;7.57;5.22;;;14.50;99.90;;;;;;5085535;28;20278;-85
2023/10/11 02:58:08;;;;;;;8.47;5.90;;;14.70;99.90;;;;;;5085643;28;20684;-85
2023/10/11 03:00:36;;;;;;;8.75;6.05;;;14.50;99.90;;;;;;5087415;28;20562;-85
2023/10/11 03:03:07;;;;;;;7.32;5.00;;;14.60;99.90;;;;;;5088174;28;20207;-85
2023/10/11 03:05:37;;;;;;;6.22;4.68;;;14.50;99.90;;;;;;5088871;28;20190;-85
2023/10/11 03:08:16;;;;;;;9.30;5.35;;;14.80;99.90;;;;;;5086758;28;20183;-85
2023/10/11 03:10:44;;;;;;;8.02;5.43;;;14.40;99.90;;;;;;5088352;28;20335;-85
2023/10/11 03:13:19;;;;;;;10.38;5.78;;;14.40;99.90;;;;;;5088589;28;20210;-85
2023/10/11 03:15:47;;;;;;;9.77;6.35;;;14.50;99.90;;;;;;5090964;28;20190;-85
2023/10/11 03:18:13;;;;;;;7.15;4.80;;;14.90;99.90;;;;;;5083391;28;20596;-85
2023/10/11 03:20:39;;;;;;;7.23;4.47;;;14.80;99.90;;;;;;5087311;28;20955;-85
2023/10/11 03:23:10;;;;;;;9.23;5.70;;;15.00;99.90;;;;;;5089448;28;20225;-86
2023/10/11 03:25:38;;;;;;;8.20;5.55;;;14.50;99.90;;;;;;5093652;28;20274;-86
2023/10/11 03:28:05;;;;;;;11.10;5.60;;;15.10;99.90;;;;;;5093134;28;20203;-86
2023/10/11 03:30:35;;;;;;;7.78;4.90;;;14.40;99.90;;;;;;5093687;28;20211;-85
2023/10/11 03:33:02;;;;;;;11.73;6.55;;;15.00;99.90;;;;;;5090281;28;20745;-85
2023/10/11 03:35:33;;;;;;;13.00;5.43;;;14.30;99.90;;;;;;5112089;28;20183;-85
2023/10/11 03:37:59;;;;;;;11.57;6.68;;;14.60;99.90;;;;;;5091898;28;20205;-85
2023/10/11 03:40:34;;;;;;;11.23;5.60;;;14.40;99.90;;;;;;5091307;28;20187;-86
2023/10/11 03:43:03;;;;;;;10.80;5.38;;;14.50;99.90;;;;;;5089947;28;20207;-84
2023/10/11 03:45:30;;;;;;;9.27;5.10;;;14.50;99.90;;;;;;5108609;28;20172;-84
2023/10/11 03:48:00;;;;;;;8.73;4.80;;;14.10;99.90;;;;;;5087599;28;20188;-83
2023/10/11 03:50:33;;;;;;;8.30;5.23;;;14.60;99.90;;;;;;5095612;28;20191;-86
2023/10/11 03:53:07;;;;;;;7.50;5.70;;;14.40;99.90;;;;;;5091549;28;20214;-86
2023/10/11 03:55:33;;;;;;;9.73;5.28;;;14.50;99.90;;;;;;5084500;28;20736;-86
2023/10/11 03:57:58;;;;;;;8.90;5.30;;;15.10;99.90;;;;;;5089357;28;20216;-86
2023/10/11 04:00:25;;;;;;;11.40;6.10;;;14.60;99.90;;;;;;5091362;28;20433;-86
2023/10/11 04:02:56;;;;;;;11.13;5.30;;;14.60;99.90;;;;;;5092487;28;20207;-86
2023/10/11 04:05:22;;;;;;;9.43;5.30;;;14.30;99.90;;;;;;5092137;28;20274;-86
2023/10/11 04:07:48;;;;;;;7.73;5.60;;;14.40;99.90;;;;;;5092352;28;20267;-86
2023/10/11 04:10:32;;;;;;;10.03;5.70;;;15.00;99.90;;;;;;5089083;28;20980;-86
2023/10/11 04:12:57;;;;;;;9.98;6.20;;;14.90;99.90;;;;;;5085516;28;20209;-86
2023/10/11 04:15:30;;;;;;;7.47;5.37;;;15.10;99.90;;;;;;5089493;28;20180;-86
2023/10/11 04:17:56;;;;;;;8.57;5.50;;;14.60;99.90;;;;;;5083573;28;20639;-85
2023/10/11 04:20:33;;;;;;;9.07;5.13;;;14.80;99.90;;;;;;5101428;28;20206;-84
2023/10/11 04:23:10;;;;;;;7.35;4.70;;;14.60;99.90;;;;;;5094331;28;20210;-86
2023/10/11 04:25:37;;;;;;;8.38;5.75;;;14.40;99.90;;;;;;5091015;28;20176;-85
2023/10/11 04:28:05;;;;;;;7.97;7.15;;;14.70;99.90;;;;;;5092073;28;20179;-86
2023/10/11 04:30:44;;;;;;;10.70;5.10;;;14.50;99.90;;;;;;5092614;28;20180;-85
2023/10/11 04:33:20;;;;;;;8.63;5.32;;;14.50;99.90;;;;;;5090187;28;20286;-85
2023/10/11 04:35:55;;;;;;;7.00;6.00;;;14.10;99.90;;;;;;5091419;28;20900;-86
2023/10/11 04:38:21;;;;;;;8.90;5.82;;;14.20;99.90;;;;;;5116878;28;20239;-86
2023/10/11 04:40:51;;;;;;;9.95;5.68;;;14.50;99.90;;;;;;5096599;28;20218;-86
2023/10/11 04:43:23;;;;;;;11.65;5.70;;;14.50;99.90;;;;;;5099768;28;21002;-84
2023/10/11 04:45:59;;;;;;;9.52;5.57;;;15.00;99.90;;;;;;5118908;28;20190;-84
2023/10/11 04:48:30;;;;;;;10.10;6.13;;;14.70;99.90;;;;;;5120315;28;20806;-84
2023/10/11 04:59:09;;;;;;;7.65;5.35;;;14.00;99.90;;;;;;5117430;28;20205;-85
2023/10/11 05:04:26;;;;;;;11.10;6.10;;;14.40;99.90;;;;;;5115088;28;20214;-86
2023/10/11 05:06:53;;;;;;;9.52;6.60;;;14.40;99.90;;;;;;5095731;28;20176;-86
2023/10/11 05:11:50;;;;;;;10.48;6.90;;;14.00;99.90;;;;;;5134202;28;20199;-90
2023/10/11 05:14:29;;;;;;;7.53;5.38;;;14.50;99.90;;;;;;5112578;28;20227;-90
2023/10/11 05:16:59;;;;;;;6.97;6.20;;;14.50;99.90;;;;;;5114516;28;20191;-90
2023/10/11 05:19:34;;;;;;;7.80;5.60;;;15.00;99.90;;;;;;5114302;28;20213;-89
2023/10/11 05:22:00;;;;;;;8.52;5.40;;;14.30;99.90;;;;;;5121128;27;20187;-89
2023/10/11 05:25:12;;;;;;;9.57;6.50;;;14.40;99.90;;;;;;5105788;28;20216;-89
2023/10/11 05:27:47;;;;;;;9.27;5.53;;;14.40;99.90;;;;;;5119592;28;20440;-91
2023/10/11 05:30:26;;;;;;;8.98;5.53;;;14.70;99.90;;;;;;5094081;28;20172;-90
2023/10/11 05:52:14;;;;;;;10.70;6.00;;;14.70;99.90;;;;;;5095549;28;20213;-90
2023/10/11 05:54:43;;;;;;;12.18;6.55;;;14.60;99.90;;;;;;5076606;28;20308;-90
2023/10/11 05:57:09;;;;;;;8.48;6.15;;;14.20;99.90;;;;;;5092647;28;20175;-90
2023/10/11 05:59:35;;;;;;;11.47;5.77;;;14.20;99.90;;;;;;5089806;28;20236;-91
2023/10/11 06:02:03;;;;;;;10.02;6.05;;;14.20;99.90;;;;;;5091274;28;20187;-89
2023/10/11 06:04:30;;;;;;;10.07;6.65;;;14.40;99.90;;;;;;5088834;28;20219;-89
2023/10/11 06:06:58;;;;;;;9.55;6.38;;;14.30;99.90;;;;;;5093419;28;20176;-89
2023/10/11 06:09:27;;;;;;;9.60;5.60;;;14.10;99.90;;;;;;5105783;28;20180;-90
2023/10/11 06:11:57;;;;;;;12.00;6.85;;;14.40;99.90;;;;;;5091388;28;20611;-90
2023/10/11 06:14:23;;;;;;;8.02;5.97;;;15.30;99.90;;;;;;5073024;28;20230;-89
2023/10/11 06:16:57;;;;;;;7.63;5.75;;;14.30;99.90;;;;;;5091277;28;20191;-90
2023/10/11 06:19:28;;;;;;;8.50;5.20;;;14.10;99.90;;;;;;5090978;28;20741;-90
2023/10/11 06:22:09;;;;;;;11.23;5.63;;;14.70;99.90;;;;;;5091694;28;20292;-90
2023/10/11 06:24:36;;;;;;;13.32;5.70;;;14.30;99.90;;;;;;5084962;28;20209;-90
2023/10/11 06:29:53;;;;;;;12.88;5.45;;;14.40;99.90;;;;;;5112342;28;20295;-90
2023/10/11 06:32:24;;;;;;;13.45;6.00;;;14.40;99.90;;;;;;5112829;28;20199;-89
2023/10/11 06:34:52;;;;;;;9.00;5.40;;;14.60;99.90;;;;;;5092206;28;20549;-90
2023/10/11 06:37:19;;;;;;;7.25;5.40;;;14.80;99.90;;;;;;5093476;28;20191;-90
2023/10/11 06:42:14;;;;;;;7.93;5.45;;;15.00;99.90;;;;;;5112243;28;20218;-90
2023/10/11 06:45:16;;;;;;;12.77;6.10;;;14.60;99.90;;;;;;5089130;28;20182;-89
2023/10/11 06:47:42;;;;;;;6.90;4.88;;;14.80;99.90;;;;;;5109224;28;20266;-89
2023/10/11 06:50:11;;;;;;;10.17;5.73;;;15.00;99.90;;;;;;5100034;28;20188;-89
2023/10/11 06:52:43;;;;;;;11.93;6.35;;;15.00;99.90;;;;;;5088353;28;20549;-89
2023/10/11 06:57:45;;;;;;;11.73;5.32;;;15.40;99.90;;;;;;5105848;28;20278;-89
2023/10/11 07:00:23;;;;;;;10.48;5.50;;;15.40;99.90;;;;;;5094077;28;20632;-89
2023/10/11 07:05:47;;;;;;;9.40;6.22;;;15.50;99.90;;;;;;5115766;28;20198;-89
2023/10/11 07:08:20;;;;;;;10.93;6.60;;;15.50;99.90;;;;;;5079677;28;20195;-89
2023/10/11 07:16:24;;;;;;;9.00;5.78;;;15.80;99.90;;;;;;5115023;28;20551;-89
2023/10/11 07:18:54;;;;;;;8.27;4.70;;;16.50;99.90;;;;;;5091533;28;20184;-89
2023/10/11 07:26:56;;;;;;;10.43;6.05;;;17.60;99.90;;;;;;5115288;28;20254;-87
2023/10/11 07:29:22;;;;;;;14.50;9.52;;;18.30;99.90;;;;;;5080252;28;20192;-89
2023/10/11 07:31:51;;;;;;;10.40;6.17;;;18.10;99.90;;;;;;5092330;28;20182;-88
2023/10/11 07:34:22;;;;;;;6.55;5.15;;;17.80;99.90;;;;;;5090188;28;20449;-89
2023/10/11 07:36:50;;;;;;;8.43;5.50;;;18.80;99.90;;;;;;5110440;28;20207;-90
2023/10/11 07:41:49;;;;;;;6.57;4.75;;;18.80;99.90;;;;;;5110568;28;20280;-89
2023/10/11 07:44:18;;;;;;;10.32;6.80;;;17.40;99.90;;;;;;5096415;28;20568;-88
2023/10/11 07:46:45;;;;;;;12.48;6.15;;;17.60;99.80;;;;;;5091339;28;20181;-90
2023/10/11 07:49:22;;;;;;;11.27;6.25;;;19.50;99.90;;;;;;5094583;28;20224;-90
2023/10/11 07:51:52;;;;;;;11.70;5.75;;;18.90;99.90;;;;;;5092844;28;20285;-90
2023/10/11 07:54:22;;;;;;;10.98;6.38;;;18.60;99.90;;;;;;5096126;28;20191;-90
2023/10/11 07:56:57;;;;;;;16.73;11.80;;;18.60;99.80;;;;;;5088749;28;20400;-90
2023/10/11 07:59:26;;;;;;;11.98;8.80;;;19.40;99.90;;;;;;5093262;28;20183;-90
2023/10/11 08:01:59;;;;;;;11.18;8.80;;;19.30;99.80;;;;;;5088709;28;20636;-90
2023/10/11 08:04:29;;;;;;;12.15;8.20;;;19.70;99.00;;;;;;5096063;28;20221;-89
2023/10/11 08:06:59;;;;;;;10.50;7.10;;;18.10;97.90;;;;;;5094152;28;20247;-89
2023/10/11 08:09:45;;;;;;;9.13;6.57;;;19.10;98.30;;;;;;5073132;28;20192;-89
2023/10/11 08:12:13;;;;;;;12.43;6.63;;;18.70;97.90;;;;;;5103856;28;20207;-90
2023/10/11 08:14:44;;;;;;;10.63;5.90;;;20.70;99.10;;;;;;5088819;28;20656;-89
2023/10/11 08:17:14;;;;;;;10.95;6.18;;;20.90;99.10;;;;;;5092976;28;20180;-89
2023/10/11 08:19:44;;;;;;;9.65;5.68;;;19.10;97.40;;;;;;5092616;28;20561;-89
2023/10/11 08:22:16;;;;;;;10.98;6.25;;;19.70;97.30;;;;;;5099052;28;20243;-89
2023/10/11 08:24:48;;;;;;;14.23;6.47;;;21.10;97.10;;;;;;5110929;28;20233;-89
2023/10/11 08:27:22;;;;;;;12.95;7.32;;;19.60;95.90;;;;;;5084150;28;20176;-89
2023/10/11 08:29:53;;;;;;;13.25;7.45;;;20.60;95.70;;;;;;5094816;28;20195;-90
2023/10/11 08:32:18;;;;;;;11.80;7.45;;;21.90;96.10;;;;;;5094953;28;20278;-89
2023/10/11 08:34:46;;;;;;;13.97;7.30;;;20.60;95.80;;;;;;5093134;28;20282;-89
2023/10/11 08:37:14;;;;;;;13.23;7.32;;;19.80;95.20;;;;;;5095984;28;20187;-88
2023/10/11 08:39:44;;;;;;;18.17;7.65;;;22.20;96.20;;;;;;5073721;28;20219;-89
2023/10/11 08:42:17;;;;;;;13.48;6.53;;;20.70;95.00;;;;;;5092734;28;20214;-90
2023/10/11 08:44:47;;;;;;;20.45;8.68;;;21.70;95.30;;;;;;5091070;28;20260;-89
2023/10/11 08:47:16;;;;;;;14.52;7.40;;;20.00;94.40;;;;;;5091186;28;20409;-89
2023/10/11 08:49:46;;;;;;;13.30;9.70;;;19.90;94.30;;;;;;5098771;28;20175;-88
2023/10/11 08:52:17;;;;;;;17.40;8.55;;;22.00;95.80;;;;;;5101472;28;20204;-89
2023/10/11 08:54:44;;;;;;;12.48;6.50;;;21.00;94.90;;;;;;5099823;28;21268;-89
2023/10/11 08:57:13;;;;;;;11.55;6.32;;;22.90;95.10;;;;;;5096463;28;20188;-88
2023/10/11 08:59:56;;;;;;;12.05;6.50;;;22.30;94.60;;;;;;5099086;28;20510;-90
2023/10/11 09:02:27;;;;;;;11.50;7.57;;;20.10;92.60;;;;;;5087556;28;20207;-89
2023/10/11 09:05:06;;;;;;;12.50;7.15;;;20.50;93.00;;;;;;5090549;28;20171;-89
2023/10/11 09:07:37;;;;;;;12.90;7.43;;;20.50;92.60;;;;;;5090668;28;20528;-88
2023/10/11 09:10:32;;;;;;;11.45;7.15;;;22.00;93.40;;;;;;5093203;28;20643;-89
2023/10/11 09:12:59;;;;;;;11.05;7.43;;;20.60;92.40;;;;;;5089407;28;20209;-89
2023/10/11 09:15:42;;;;;;;11.60;6.93;;;23.10;93.90;;;;;;5092448;28;20218;-89
2023/10/11 09:18:14;;;;;;;14.60;7.50;;;23.00;93.80;;;;;;5092320;28;20433;-88
2023/10/11 09:21:09;;;;;;;11.80;7.60;;;21.10;92.00;;;;;;5100992;22;21077;-82
2023/10/11 09:23:36;;;;;;;11.90;7.57;;;21.50;92.30;;;;;;5078172;28;20490;-81
2023/10/11 09:26:03;;;;;;;10.40;5.80;;;21.60;92.00;;;;;;5058617;28;20427;-81
2023/10/11 09:28:33;;;;;;;12.30;5.77;;;21.50;91.00;;;;;;5087200;28;20468;-82
2023/10/11 09:31:15;;;;;;;10.07;6.40;;;21.70;90.00;;;;;;5062137;28;20493;-82
2023/10/11 09:33:49;;;;;;;9.87;6.00;;;21.90;89.20;;;;;;5059713;28;20934;-82
2023/10/11 09:36:16;;;;;;;10.27;6.10;;;22.30;90.00;;;;;;5058795;28;20458;-82
2023/10/11 09:38:42;;;;;;;8.03;5.30;;;22.50;84.80;;;;;;5058332;28;20438;-82
2023/10/11 09:41:08;;;;;;;8.10;4.80;;;22.60;85.10;;;;;;5068160;28;20537;-81
2023/10/11 09:43:43;;;;;;;8.17;5.20;;;22.80;83.90;;;;;;5077874;28;20217;-82
2023/10/11 09:46:11;;;;;;;11.67;6.40;;;23.00;82.90;;;;;;5063195;28;20492;-81
2023/10/11 09:48:40;;;;;;;8.30;5.67;;;23.20;81.90;;;;;;5058848;28;20515;-81
2023/10/11 09:51:13;;;;;;;13.17;4.63;;;23.70;81.30;;;;;;5060479;28;20447;-81
2023/10/11 09:53:49;;;;;;;11.50;5.27;;;23.60;76.10;;;;;;5058921;28;20833;-81
2023/10/11 09:56:40;;;;;;;5.70;4.07;;;23.80;75.10;;;;;;5079947;28;20442;-81
2023/10/11 09:59:34;;;;;;;7.37;4.20;;;24.10;73.60;;;;;;5052596;28;20496;-81
2023/10/11 10:02:13;;;;;;;11.60;4.50;;;24.30;73.10;;;;;;5075294;28;20444;-81
2023/10/11 10:04:56;;;;;;;7.17;4.60;;;24.70;71.90;;;;;;5063472;28;20468;-81
2023/10/11 10:07:33;;;;;;;12.03;6.27;;;24.60;72.10;;;;;;5064765;28;20464;-81
2023/10/11 10:10:00;;;;;;;11.67;6.30;;;25.10;72.90;;;;;;5065520;28;20956;-82
2023/10/11 10:12:55;;;;;;;14.83;4.87;;;25.10;71.70;;;;;;5063092;28;20456;-81
2023/10/11 10:15:23;;;;;;;8.00;3.90;;;24.90;70.50;;;;;;5053001;28;20448;-80
2023/10/11 10:18:00;;;;;;;5.63;4.30;;;25.10;70.00;;;;;;5061510;28;20505;-82
2023/10/11 10:20:41;;;;;;;7.53;4.10;;;25.90;70.00;;;;;;5061274;28;20468;-80
2023/10/11 10:23:21;;;;;;;7.67;4.20;;;25.40;68.60;;;;;;5065279;28;20492;-83
2023/10/11 10:26:05;;;;;;;6.00;4.00;;;25.70;67.90;;;;;;5064739;28;20826;-80
2023/10/11 10:28:34;;;;;;;8.10;4.27;;;25.70;67.10;;;;;;5050566;28;20528;-80
2023/10/11 10:31:11;;;;;;;7.70;4.30;;;25.80;66.90;;;;;;5057430;28;20431;-82
2023/10/11 10:33:41;;;;;;;8.07;4.37;;;26.00;67.00;;;;;;5065981;28;20550;-82
2023/10/11 10:36:28;;;;;;;7.40;4.57;;;26.20;66.50;;;;;;5063111;28;20435;-81
2023/10/11 10:39:00;;;;;;;9.03;4.30;;;26.70;65.80;;;;;;5075456;28;20423;-82
2023/10/11 10:41:32;;;;;;;12.47;5.37;;;26.40;65.90;;;;;;5071570;28;20473;-81
2023/10/11 10:44:06;;;;;;;7.80;3.87;;;26.40;65.40;;;;;;5076112;28;20502;-82
2023/10/11 10:46:32;;;;;;;10.53;4.60;;;26.60;64.70;;;;;;5051798;28;20441;-82
2023/10/11 10:48:58;;;;;;;5.90;3.97;;;27.00;63.70;;;;;;5058501;28;20441;-82
2023/10/11 10:51:27;;;;;;;11.27;6.47;;;27.60;62.70;;;;;;5056988;28;20819;-82
2023/10/11 10:53:53;;;;;;;9.20;6.47;;;28.00;62.10;;;;;;5061260;28;20214;-82
2023/10/11 10:56:26;;;;;;;8.63;4.63;;;28.70;60.90;;;;;;5062843;28;20438;-83
2023/10/11 10:59:12;;;;;;;10.70;6.00;;;28.80;58.80;;;;;;5041798;28;20192;-83
2023/10/11 11:01:44;;;;;;;12.80;5.47;;;29.10;57.90;;;;;;5090902;28;20426;-82
2023/10/11 11:04:11;;;;;;;6.70;4.60;;;29.20;57.70;;;;;;5080254;28;20489;-83
2023/10/11 11:06:58;;;;;;;9.03;4.23;;;29.00;57.30;;;;;;5060658;28;20803;-83
2023/10/11 11:09:26;;;;;;;7.90;4.47;;;29.10;57.30;;;;;;5052005;28;20521;-82
2023/10/11 11:11:55;;;;;;;9.80;5.10;;;29.10;56.60;;;;;;5062528;28;20522;-83
2023/10/11 11:14:23;;;;;;;11.33;5.37;;;29.40;56.50;;;;;;5077917;28;20445;-82
2023/10/11 11:16:56;;;;;;;16.00;7.53;;;29.30;56.30;;;;;;5064436;28;20506;-81
2023/10/11 11:19:34;;;;;;;6.90;4.60;;;29.30;58.10;;;;;;5084850;28;20439;-81
2023/10/11 11:22:15;;;;;;;8.00;4.17;;;29.30;56.60;;;;;;5064493;28;20455;-81
2023/10/11 11:24:42;;;;;;;6.57;4.80;;;28.90;55.10;;;;;;5090211;28;20565;-82
2023/10/11 11:27:26;;;;;;;10.30;4.67;;;29.00;55.60;;;;;;5091222;28;20447;-82
2023/10/11 11:30:04;;;;;;;13.33;6.20;;;29.10;56.30;;;;;;5092055;28;20419;-82
2023/10/11 11:32:37;;;;;;;8.93;4.60;;;28.70;57.80;;;;;;5076292;28;20448;-82
2023/10/11 11:35:10;;;;;;;9.07;4.87;;;28.30;56.80;;;;;;5063748;28;20461;-82
2023/10/11 11:38:02;;;;;;;7.53;4.50;;;28.30;57.20;;;;;;5073500;28;20468;-82
2023/10/11 11:40:47;;;;;;;26.80;7.33;;;28.10;57.00;;;;;;5070784;28;20432;-82
2023/10/11 11:43:17;;;;;;;5.40;3.80;;;27.90;57.60;;;;;;5079477;28;20461;-82
2023/10/11 11:45:44;;;;;;;5.67;3.90;;;28.40;57.40;;;;;;5073935;28;20519;-82
2023/10/11 11:48:09;;;;;;;7.90;5.57;;;27.70;57.30;;;;;;5068920;28;20467;-82
2023/10/11 11:50:36;;;;;;;9.40;4.50;;;27.60;58.00;;;;;;5076260;28;20451;-80
2023/10/11 11:53:03;;;;;;;9.60;4.93;;;27.50;57.90;;;;;;5093896;28;20225;-82
2023/10/11 11:55:29;;;;;;;9.23;4.77;;;27.50;58.10;;;;;;5081646;28;20441;-82
2023/10/11 11:57:54;;;;;;;20.33;5.80;;;27.60;58.40;;;;;;5077865;28;20447;-82
2023/10/11 12:02:53;;;;;;;9.43;4.63;;;27.40;58.60;;;;;;5098940;28;20211;-81
2023/10/11 12:05:20;;;;;;;10.80;4.30;;;27.30;58.50;;;;;;5080750;28;20447;-82
2023/10/11 12:07:47;;;;;;;9.87;4.43;;;27.30;59.10;;;;;;5079523;28;20432;-82
2023/10/11 12:10:25;;;;;;;8.97;5.20;;;27.30;59.50;;;;;;5075080;28;21397;-82
2023/10/11 12:13:05;;;;;;;7.77;4.07;;;27.70;59.80;;;;;;5074823;28;20454;-82
2023/10/11 12:15:31;;;;;;;6.13;4.47;;;27.30;59.50;;;;;;5093161;28;20431;-82
2023/10/11 12:17:57;;;;;;;8.10;4.33;;;27.40;58.70;;;;;;5066265;28;20466;-82
2023/10/11 12:20:27;;;;;;;7.87;4.70;;;27.50;58.80;;;;;;5061035;28;21026;-81
2023/10/11 12:22:53;;;;;;;6.70;4.30;;;27.60;58.60;;;;;;5061718;28;20212;-82
2023/10/11 12:25:24;;;;;;;9.17;5.37;;;27.50;58.20;;;;;;5070011;28;20447;-82
2023/10/11 12:27:50;;;;;;;7.57;4.53;;;27.70;57.60;;;;;;5067535;28;20201;-82
2023/10/11 12:30:22;;;;;;;12.90;5.57;;;27.60;59.00;;;;;;5068199;28;20460;-82
2023/10/11 12:32:52;;;;;;;8.53;4.07;;;27.50;59.50;;;;;;5061792;28;20209;-82
2023/10/11 12:35:23;;;;;;;7.70;4.40;;;27.50;59.20;;;;;;5063925;28;20444;-82
2023/10/11 12:37:49;;;;;;;9.57;4.40;;;27.50;59.70;;;;;;5080264;28;20442;-81
2023/10/11 12:40:22;;;;;;;9.80;5.50;;;27.40;59.00;;;;;;5062223;28;20447;-81
2023/10/11 12:42:48;;;;;;;11.50;5.50;;;27.40;60.70;;;;;;5061461;28;20543;-81
2023/10/11 12:45:16;;;;;;;9.57;4.00;;;27.50;59.30;;;;;;5064295;28;20465;-81
2023/10/11 12:47:42;;;;;;;5.37;3.60;;;27.50;53.40;;;;;;5086707;28;20441;-81
2023/10/11 12:50:09;;;;;;;5.33;3.33;;;27.60;51.80;;;;;;5069463;28;20435;-82
2023/10/11 12:52:38;;;;;;;7.73;3.53;;;27.70;51.70;;;;;;5065997;28;20464;-82
2023/10/11 12:55:06;;;;;;;5.70;3.60;;;27.70;50.80;;;;;;5088657;28;20449;-81
2023/10/11 12:57:38;;;;;;;5.77;3.90;;;27.80;50.60;;;;;;5085144;28;20441;-81
2023/10/11 13:02:58;;;;;;;3.90;2.97;;;27.70;51.20;;;;;;5082641;28;20508;-82
2023/10/11 13:05:26;;;;;;;5.90;3.30;;;27.70;50.30;;;;;;5063675;28;20425;-82
2023/10/11 13:07:54;;;;;;;6.83;4.60;;;27.80;50.20;;;;;;5056498;28;20447;-82
2023/10/11 13:10:24;;;;;;;4.67;3.57;;;27.90;50.50;;;;;;5063064;28;20442;-82
2023/10/11 13:12:54;;;;;;;4.47;3.13;;;28.10;50.70;;;;;;5062742;28;20567;-82
2023/10/11 13:15:24;;;;;;;5.60;3.50;;;27.90;50.30;;;;;;5063660;28;20545;-81
2023/10/11 13:17:50;;;;;;;5.93;3.30;;;27.90;50.20;;;;;;5062131;28;20475;-81
2023/10/11 13:20:18;;;;;;;8.40;4.57;;;27.80;49.70;;;;;;5081783;28;20462;-83
2023/10/11 13:22:52;;;;;;;7.13;4.80;;;27.90;49.90;;;;;;5061186;28;20223;-82
2023/10/11 13:25:24;;;;;;;6.40;4.97;;;27.90;50.40;;;;;;5063675;28;20528;-81
2023/10/11 13:27:56;;;;;;;7.70;4.00;;;28.00;51.10;;;;;;5059789;28;20445;-81
2023/10/11 13:30:22;;;;;;;5.83;3.97;;;28.00;49.80;;;;;;5079337;28;20513;-81
2023/10/11 13:32:51;;;;;;;4.27;3.87;;;27.50;49.40;;;;;;5078138;28;20457;-82
2023/10/11 13:35:19;;;;;;;5.67;3.60;;;29.20;51.10;;;;;;5059298;28;20440;-81
2023/10/11 13:37:48;;;;;;;6.60;5.30;;;28.20;50.30;;;;;;5062015;28;20443;-81
2023/10/11 13:40:18;;;;;;;5.47;3.60;;;28.00;50.30;;;;;;5058697;28;20438;-81
2023/10/11 13:42:43;;;;;;;4.20;3.80;;;28.00;50.30;;;;;;5061604;28;20513;-81
2023/10/11 13:45:16;;;;;;;7.00;3.93;;;28.00;50.60;;;;;;5061545;28;20434;-81
2023/10/11 13:47:43;;;;;;;4.40;4.00;;;28.10;50.60;;;;;;5060905;28;20623;-81
2023/10/11 13:50:20;;;;;;;9.80;3.57;;;28.00;50.30;;;;;;5061012;28;20541;-81
2023/10/11 13:52:51;;;;;;;8.40;3.40;;;28.00;49.70;;;;;;5058488;28;20456;-81
2023/10/11 13:55:23;;;;;;;8.50;3.60;;;28.00;48.90;;;;;;5061022;28;20958;-81
2023/10/11 13:57:52;;;;;;;7.37;4.60;;;27.90;48.90;;;;;;5059622;28;20595;-81
2023/10/11 14:01:03;;;;;;;4.80;4.00;;;27.80;49.40;;;;;;5065770;28;20487;-81
2023/10/11 14:03:38;;;;;;;7.40;5.40;;;27.80;49.70;;;;;;5074371;28;20466;-82
2023/10/11 14:08:44;;;;;;;7.90;4.10;;;28.10;49.70;;;;;;5085500;28;20452;-81
2023/10/11 14:11:14;;;;;;;13.33;8.00;;;27.70;50.00;;;;;;5065529;28;20444;-81